Time;durP1;ratioP1;P1;durP2;ratioP2;P2;SDS_P1;SDS_P2;PMS_P1;PMS_P2;Temp;Humidity;BMP_temperature;BMP_pressure;BME280_temperature;BME280_humidity;BME280_pressure;Samples;Min_cycle;Max_cycle;Signal;HPM_P1;HPM_P2
2021/03/14 00:00:36;;;;;;;10.60;1.83;;;5.70;91.10;;;;;;5053291;28;20032;-92
2021/03/14 00:03:03;;;;;;;15.63;1.90;;;5.70;91.10;;;;;;5043282;28;20078;-95
2021/03/14 00:05:30;;;;;;;11.03;1.30;;;5.60;91.20;;;;;;5045900;28;20041;-92
2021/03/14 00:07:56;;;;;;;10.43;1.50;;;5.60;91.20;;;;;;5060770;28;20021;-90
2021/03/14 00:10:22;;;;;;;13.23;1.90;;;5.60;91.20;;;;;;5043376;28;20021;-93
2021/03/14 00:12:51;;;;;;;9.00;1.80;;;5.60;91.20;;;;;;5048398;28;20092;-90
2021/03/14 00:15:19;;;;;;;14.60;1.67;;;5.60;91.30;;;;;;5047112;28;20025;-94
2021/03/14 00:17:45;;;;;;;13.80;1.63;;;5.70;91.40;;;;;;5061814;28;20029;-93
2021/03/14 00:20:11;;;;;;;12.43;1.50;;;5.60;91.30;;;;;;5044032;28;20120;-95
2021/03/14 00:22:37;;;;;;;11.20;1.73;;;5.70;91.30;;;;;;5060035;28;20025;-94
2021/03/14 00:25:06;;;;;;;18.00;2.20;;;5.60;91.30;;;;;;5043680;28;20083;-94
2021/03/14 00:27:31;;;;;;;17.90;1.80;;;5.70;91.30;;;;;;5041130;28;20032;-94
2021/03/14 00:29:57;;;;;;;12.00;1.63;;;5.70;91.30;;;;;;5042700;28;20021;-91
2021/03/14 00:32:23;;;;;;;7.13;1.77;;;5.70;91.20;;;;;;5024578;28;20030;-94
2021/03/14 00:34:49;;;;;;;13.73;1.90;;;5.60;91.30;;;;;;5040736;28;20033;-95
2021/03/14 00:37:14;;;;;;;12.07;1.50;;;5.80;91.30;;;;;;5043314;28;20154;-94
2021/03/14 00:39:45;;;;;;;11.77;1.80;;;5.80;91.10;;;;;;5028743;28;20033;-95
2021/03/14 00:42:10;;;;;;;14.30;2.47;;;5.80;91.00;;;;;;5023849;28;20025;-93
2021/03/14 00:44:39;;;;;;;13.87;2.27;;;5.80;91.00;;;;;;5043413;28;20139;-94
2021/03/14 00:47:05;;;;;;;9.27;2.10;;;5.90;90.80;;;;;;5040031;28;20051;-94
2021/03/14 00:49:31;;;;;;;17.87;2.00;;;5.90;90.70;;;;;;5040412;28;20032;-91
2021/03/14 00:51:57;;;;;;;13.53;1.67;;;5.90;90.80;;;;;;5038524;28;20021;-93
2021/03/14 00:54:22;;;;;;;15.50;1.67;;;5.90;90.80;;;;;;5024291;28;20029;-92
2021/03/14 00:56:48;;;;;;;12.03;1.63;;;5.80;90.70;;;;;;5023263;28;20053;-93
2021/03/14 00:59:14;;;;;;;11.63;2.10;;;5.90;90.70;;;;;;5040672;28;20032;-94
2021/03/14 01:01:39;;;;;;;11.33;1.67;;;5.90;90.70;;;;;;5056514;28;20017;-95
2021/03/14 01:04:08;;;;;;;15.63;1.70;;;5.90;90.80;;;;;;5050102;28;20013;-94
2021/03/14 01:06:34;;;;;;;11.60;1.50;;;5.90;90.70;;;;;;5070048;28;20029;-93
2021/03/14 01:09:00;;;;;;;16.63;2.33;;;6.00;90.60;;;;;;5042602;28;20021;-93
2021/03/14 01:11:25;;;;;;;18.97;1.70;;;6.00;90.60;;;;;;5025624;28;20025;-92
2021/03/14 01:13:51;;;;;;;13.50;2.50;;;6.00;90.50;;;;;;5022738;28;20032;-93
2021/03/14 01:16:17;;;;;;;11.93;1.93;;;6.00;90.50;;;;;;5039939;28;20035;-92
2021/03/14 01:18:43;;;;;;;16.33;2.10;;;6.10;90.40;;;;;;5041457;28;20029;-94
2021/03/14 01:21:09;;;;;;;9.40;1.70;;;6.10;90.30;;;;;;5056282;28;20520;-95
2021/03/14 01:23:34;;;;;;;10.93;1.70;;;6.00;90.30;;;;;;5055809;28;20025;-95
2021/03/14 01:26:00;;;;;;;11.23;1.70;;;6.00;90.20;;;;;;5038704;28;20049;-94
2021/03/14 01:28:25;;;;;;;10.97;1.20;;;6.10;90.30;;;;;;5037768;28;20027;-90
2021/03/14 01:30:51;;;;;;;7.97;1.23;;;6.10;90.20;;;;;;5021250;28;20386;-90
2021/03/14 01:33:17;;;;;;;8.10;1.30;;;6.10;90.20;;;;;;5023563;28;20489;-95
2021/03/14 01:35:42;;;;;;;13.03;2.10;;;6.10;90.20;;;;;;5038931;28;20021;-89
2021/03/14 01:38:08;;;;;;;10.30;1.50;;;6.10;90.10;;;;;;5021862;28;20025;-94
2021/03/14 01:40:34;;;;;;;12.17;1.37;;;6.10;90.00;;;;;;5021573;28;20025;-87
2021/03/14 01:43:00;;;;;;;8.00;2.00;;;6.10;90.00;;;;;;5038352;28;20021;-91
2021/03/14 01:45:26;;;;;;;6.63;1.00;;;6.10;90.00;;;;;;5037867;28;20041;-92
2021/03/14 01:47:53;;;;;;;7.23;2.17;;;6.10;90.10;;;;;;5021547;28;20029;-90
2021/03/14 01:50:21;;;;;;;15.00;1.23;;;6.10;90.10;;;;;;5021635;28;20385;-91
2021/03/14 01:52:48;;;;;;;9.97;2.00;;;6.10;90.10;;;;;;5044356;28;20036;-91
2021/03/14 01:55:15;;;;;;;14.37;2.40;;;6.00;90.00;;;;;;5037272;28;20053;-89
2021/03/14 01:57:42;;;;;;;12.37;1.37;;;6.10;90.00;;;;;;5050510;28;20017;-89
2021/03/14 02:00:10;;;;;;;13.13;1.20;;;6.00;90.10;;;;;;5030786;28;20092;-89
2021/03/14 02:02:36;;;;;;;10.97;1.50;;;6.10;90.10;;;;;;5049222;28;20021;-89
2021/03/14 02:05:04;;;;;;;10.33;1.10;;;6.10;90.10;;;;;;5054337;28;20056;-89
2021/03/14 02:07:31;;;;;;;13.83;1.67;;;6.10;90.10;;;;;;5052125;28;20048;-91
2021/03/14 02:09:56;;;;;;;5.47;1.33;;;6.10;90.10;;;;;;5041745;28;20383;-91
2021/03/14 02:12:24;;;;;;;13.90;1.67;;;6.10;90.00;;;;;;5038901;28;20105;-91
2021/03/14 02:14:56;;;;;;;13.50;1.13;;;6.20;90.10;;;;;;5039487;28;20060;-94
2021/03/14 02:17:25;;;;;;;16.40;1.70;;;6.30;90.10;;;;;;5038333;28;20029;-92
2021/03/14 02:20:01;;;;;;;13.53;1.60;;;6.20;90.00;;;;;;5036789;28;20025;-94
2021/03/14 02:22:27;;;;;;;19.47;2.40;;;6.20;90.10;;;;;;5039141;28;21160;-92
2021/03/14 02:24:59;;;;;;;14.87;1.80;;;6.20;90.10;;;;;;5023355;28;20021;-89
2021/03/14 02:27:26;;;;;;;11.87;1.27;;;6.20;90.10;;;;;;5041110;28;20036;-90
2021/03/14 02:29:52;;;;;;;10.37;1.30;;;6.20;90.20;;;;;;5053889;28;20024;-91
2021/03/14 02:32:19;;;;;;;12.37;1.73;;;6.20;90.10;;;;;;5051451;28;20025;-91
2021/03/14 02:34:56;;;;;;;15.03;1.80;;;6.20;90.00;;;;;;5050805;28;20033;-90
2021/03/14 02:37:22;;;;;;;9.40;1.77;;;6.30;90.00;;;;;;5047436;28;20497;-90
2021/03/14 02:39:50;;;;;;;13.50;1.87;;;6.10;90.00;;;;;;5048801;28;20025;-91
2021/03/14 02:42:17;;;;;;;10.63;1.70;;;6.10;90.00;;;;;;5050775;28;20015;-89
2021/03/14 02:44:47;;;;;;;8.87;1.47;;;6.10;89.90;;;;;;5070456;28;20029;-92
2021/03/14 02:47:14;;;;;;;12.60;2.20;;;6.10;89.90;;;;;;5052441;28;20041;-93
2021/03/14 02:49:43;;;;;;;14.07;2.00;;;6.10;89.90;;;;;;5048591;28;20343;-92
2021/03/14 02:52:09;;;;;;;14.17;2.20;;;6.20;89.70;;;;;;5039276;28;20382;-92
2021/03/14 02:54:36;;;;;;;15.60;1.63;;;6.00;89.30;;;;;;5021542;28;20057;-89
2021/03/14 02:57:03;;;;;;;11.03;1.57;;;6.20;89.40;;;;;;5057407;28;20417;-92
2021/03/14 02:59:30;;;;;;;10.77;1.87;;;6.20;89.10;;;;;;5038403;28;20037;-94
2021/03/14 03:01:57;;;;;;;17.63;2.27;;;6.10;88.90;;;;;;5021148;28;20497;-92
2021/03/14 03:04:25;;;;;;;12.70;2.00;;;6.20;89.00;;;;;;5039071;28;20079;-94
2021/03/14 03:06:54;;;;;;;15.87;1.77;;;6.10;88.70;;;;;;5022013;28;20064;-95
2021/03/14 03:09:20;;;;;;;11.10;1.23;;;6.10;88.40;;;;;;5037888;28;20025;-94
2021/03/14 03:11:50;;;;;;;13.67;1.60;;;6.10;88.40;;;;;;5021688;28;20029;-90
2021/03/14 03:14:17;;;;;;;8.03;1.17;;;6.10;88.40;;;;;;5055183;28;20025;-92
2021/03/14 03:16:47;;;;;;;13.87;1.37;;;6.20;88.40;;;;;;5037167;28;20029;-93
2021/03/14 03:19:18;;;;;;;13.63;1.60;;;6.00;88.40;;;;;;5037391;28;20025;-90
2021/03/14 03:21:44;;;;;;;12.70;1.63;;;6.00;88.40;;;;;;5036254;28;20155;-91
2021/03/14 03:24:12;;;;;;;14.07;1.50;;;5.90;88.60;;;;;;5020341;28;20032;-91
2021/03/14 03:26:41;;;;;;;9.57;1.57;;;5.90;88.60;;;;;;5035994;28;20040;-89
2021/03/14 03:29:07;;;;;;;16.30;1.43;;;5.90;88.80;;;;;;5020300;28;20108;-91
2021/03/14 03:31:33;;;;;;;13.70;1.60;;;5.80;89.00;;;;;;5036412;28;20029;-89
2021/03/14 03:33:59;;;;;;;9.50;1.57;;;5.80;89.10;;;;;;5036336;28;20033;-90
2021/03/14 03:36:25;;;;;;;6.00;1.40;;;5.80;89.30;;;;;;5040364;28;20037;-90
2021/03/14 03:38:50;;;;;;;12.67;1.60;;;5.70;89.50;;;;;;5039375;28;20013;-89
2021/03/14 03:41:16;;;;;;;15.83;1.80;;;5.60;89.60;;;;;;5023244;28;20036;-89
2021/03/14 03:43:43;;;;;;;14.03;1.90;;;5.60;89.80;;;;;;5022983;28;20029;-90
2021/03/14 03:46:11;;;;;;;7.70;1.60;;;5.60;90.00;;;;;;5039725;28;20060;-88
2021/03/14 03:48:48;;;;;;;12.67;1.97;;;5.60;90.10;;;;;;5057203;28;20028;-88
2021/03/14 03:51:21;;;;;;;11.00;2.73;;;5.50;90.40;;;;;;5057288;28;20150;-88
2021/03/14 03:53:48;;;;;;;18.10;2.30;;;5.50;90.60;;;;;;5057309;28;20033;-89
2021/03/14 03:56:14;;;;;;;15.63;2.00;;;5.50;90.90;;;;;;5025894;28;20071;-89
2021/03/14 03:58:42;;;;;;;8.83;2.10;;;5.40;90.90;;;;;;5002679;28;20036;-89
2021/03/14 04:01:12;;;;;;;14.67;2.13;;;5.50;91.10;;;;;;5036319;28;20064;-87
2021/03/14 04:03:41;;;;;;;16.13;2.67;;;5.50;91.10;;;;;;5019719;28;20060;-90
2021/03/14 04:06:07;;;;;;;15.13;2.27;;;5.50;91.30;;;;;;5019924;28;20026;-89
2021/03/14 04:08:35;;;;;;;12.93;2.13;;;5.40;91.40;;;;;;5002875;28;20029;-88
2021/03/14 04:11:10;;;;;;;10.23;1.63;;;5.50;91.30;;;;;;5020196;28;20056;-88
2021/03/14 04:13:37;;;;;;;15.03;2.30;;;5.50;91.30;;;;;;5036374;28;20029;-89
2021/03/14 04:16:04;;;;;;;10.30;1.60;;;5.50;91.40;;;;;;5019436;28;20063;-87
2021/03/14 04:18:31;;;;;;;11.80;1.80;;;5.50;91.50;;;;;;5019285;28;20038;-92
2021/03/14 04:20:59;;;;;;;12.87;2.07;;;5.50;91.60;;;;;;5002872;28;20037;-88
2021/03/14 04:23:26;;;;;;;16.20;2.50;;;5.50;91.60;;;;;;5037677;28;20038;-88
2021/03/14 04:25:55;;;;;;;13.77;1.87;;;5.60;91.60;;;;;;5042622;28;20026;-89
2021/03/14 04:28:23;;;;;;;12.10;1.60;;;5.60;91.60;;;;;;5003985;28;20026;-88
2021/03/14 04:30:49;;;;;;;10.87;1.87;;;5.60;91.60;;;;;;5036444;28;20026;-87
2021/03/14 04:33:17;;;;;;;9.90;2.33;;;5.60;91.60;;;;;;5002269;28;20034;-89
2021/03/14 04:35:44;;;;;;;12.40;1.37;;;5.60;91.60;;;;;;5002134;28;20034;-89
2021/03/14 04:38:11;;;;;;;17.10;1.50;;;5.70;91.60;;;;;;5018756;28;20028;-89
2021/03/14 04:40:37;;;;;;;9.73;1.63;;;5.60;91.60;;;;;;5018347;28;20087;-89
2021/03/14 04:43:04;;;;;;;15.97;1.70;;;5.70;91.60;;;;;;5003027;28;20021;-89
2021/03/14 04:45:31;;;;;;;12.80;1.67;;;5.70;91.50;;;;;;5038109;28;20032;-91
2021/03/14 04:47:57;;;;;;;11.20;1.73;;;5.70;91.60;;;;;;5023227;28;20029;-89
2021/03/14 04:50:25;;;;;;;9.20;1.33;;;5.70;91.50;;;;;;5020119;28;20351;-96
2021/03/14 04:52:53;;;;;;;16.53;2.47;;;5.70;91.50;;;;;;5018761;28;20544;-87
2021/03/14 04:55:21;;;;;;;14.30;2.30;;;5.80;91.40;;;;;;5023901;28;20131;-92
2021/03/14 04:57:47;;;;;;;8.20;1.27;;;5.70;91.40;;;;;;5022599;28;20025;-88
2021/03/14 05:00:16;;;;;;;13.00;1.97;;;5.70;91.50;;;;;;5055701;28;20079;-94
2021/03/14 05:02:46;;;;;;;14.20;1.80;;;5.70;91.50;;;;;;5034764;28;20022;-93
2021/03/14 05:05:13;;;;;;;15.10;1.50;;;5.70;91.50;;;;;;5020885;28;20041;-94
2021/03/14 05:07:42;;;;;;;12.20;2.13;;;5.70;91.40;;;;;;5035652;28;20071;-88
2021/03/14 05:10:11;;;;;;;13.83;1.50;;;5.80;91.50;;;;;;5035595;28;20053;-90
2021/03/14 05:12:41;;;;;;;16.50;3.10;;;5.70;91.40;;;;;;5017430;28;20467;-89
2021/03/14 05:15:12;;;;;;;13.37;2.30;;;5.70;91.50;;;;;;5035193;28;20374;-89
2021/03/14 05:17:42;;;;;;;13.70;1.70;;;5.70;91.50;;;;;;5018380;28;20038;-88
2021/03/14 05:20:12;;;;;;;14.47;1.93;;;5.70;91.60;;;;;;5019323;28;20061;-88
2021/03/14 05:22:39;;;;;;;13.43;1.70;;;5.70;91.60;;;;;;5035493;28;20062;-91
2021/03/14 05:25:06;;;;;;;13.93;1.80;;;5.70;91.60;;;;;;5035004;28;20057;-93
2021/03/14 05:27:34;;;;;;;12.00;1.70;;;5.60;91.80;;;;;;5037348;28;20056;-90
2021/03/14 05:30:00;;;;;;;16.60;2.73;;;5.70;92.10;;;;;;5024143;28;20075;-95
2021/03/14 05:32:28;;;;;;;19.20;2.50;;;5.60;92.60;;;;;;5042473;28;20021;-94
2021/03/14 05:34:56;;;;;;;13.17;2.87;;;5.50;93.10;;;;;;5007623;28;20041;-92
2021/03/14 05:37:22;;;;;;;15.23;3.83;;;5.60;93.60;;;;;;5005709;28;20047;-95
2021/03/14 05:39:47;;;;;;;11.40;3.40;;;5.50;93.90;;;;;;5048059;28;20061;-94
2021/03/14 05:42:14;;;;;;;19.07;3.93;;;5.40;94.00;;;;;;5023393;28;20022;-91
2021/03/14 05:44:40;;;;;;;15.10;3.20;;;5.30;94.30;;;;;;5021346;28;20048;-94
2021/03/14 05:47:07;;;;;;;16.57;3.70;;;5.30;94.40;;;;;;5039479;28;20029;-92
2021/03/14 05:49:33;;;;;;;11.63;3.13;;;5.20;94.40;;;;;;5036604;28;20056;-92
2021/03/14 05:52:02;;;;;;;16.13;4.40;;;5.20;94.90;;;;;;5040095;28;20002;-91
2021/03/14 05:54:29;;;;;;;11.53;3.50;;;5.20;95.10;;;;;;5058180;28;20025;-95
2021/03/14 05:56:56;;;;;;;12.57;4.50;;;5.10;95.10;;;;;;5036656;28;20065;-94
2021/03/14 05:59:22;;;;;;;14.37;4.80;;;5.10;95.70;;;;;;5014747;28;20026;-95
2021/03/14 06:01:51;;;;;;;13.63;4.67;;;5.10;95.50;;;;;;5022131;28;20022;-95
2021/03/14 06:04:17;;;;;;;12.57;4.83;;;5.10;95.90;;;;;;4988580;28;20458;-94
2021/03/14 06:06:43;;;;;;;11.93;4.67;;;5.10;95.90;;;;;;4988076;28;20034;-91
2021/03/14 06:09:11;;;;;;;9.43;5.20;;;5.00;96.00;;;;;;5035848;28;20481;-93
2021/03/14 06:11:37;;;;;;;14.03;5.97;;;5.00;96.10;;;;;;5017726;28;20025;-92
2021/03/14 06:14:03;;;;;;;14.33;5.40;;;5.00;96.20;;;;;;5034717;28;20037;-89
2021/03/14 06:16:29;;;;;;;16.53;6.80;;;4.90;96.20;;;;;;5017557;28;20034;-90
2021/03/14 06:18:56;;;;;;;17.10;5.83;;;4.90;96.50;;;;;;5016751;28;20037;-91
2021/03/14 06:21:24;;;;;;;12.50;5.90;;;4.80;96.70;;;;;;5012375;28;20030;-91
2021/03/14 06:23:56;;;;;;;17.80;6.33;;;4.70;96.70;;;;;;5009063;28;20109;-91
2021/03/14 06:26:36;;;;;;;11.93;6.00;;;4.80;96.80;;;;;;5034613;28;20033;-93
2021/03/14 06:29:24;;;;;;;19.13;6.67;;;4.70;96.80;;;;;;5017707;28;20026;-93
2021/03/14 06:31:59;;;;;;;14.27;6.53;;;4.70;96.80;;;;;;5034857;28;20530;-91
2021/03/14 06:34:30;;;;;;;17.30;6.67;;;4.80;96.90;;;;;;5036138;28;20048;-94
2021/03/14 06:36:59;;;;;;;13.77;5.70;;;4.70;97.00;;;;;;5035903;28;20029;-93
2021/03/14 06:39:29;;;;;;;18.47;6.77;;;4.80;97.00;;;;;;5035121;28;20029;-94
2021/03/14 06:41:56;;;;;;;16.07;5.63;;;4.80;97.00;;;;;;5037669;28;20020;-95
2021/03/14 06:44:29;;;;;;;17.23;5.97;;;4.80;97.10;;;;;;5003826;28;20033;-95
2021/03/14 06:46:56;;;;;;;15.40;6.63;;;4.80;97.10;;;;;;5035836;28;20063;-94
2021/03/14 06:49:24;;;;;;;14.10;6.10;;;4.80;97.20;;;;;;5037483;28;20047;-92
2021/03/14 06:51:55;;;;;;;17.20;6.90;;;4.90;97.20;;;;;;5038899;28;20006;-92
2021/03/14 06:54:22;;;;;;;14.30;6.07;;;4.90;97.20;;;;;;5023034;28;20029;-94
2021/03/14 06:56:57;;;;;;;16.80;8.03;;;4.90;97.30;;;;;;5023500;28;20523;-94
2021/03/14 06:59:23;;;;;;;14.00;7.30;;;4.90;97.20;;;;;;5051520;28;20085;-95
2021/03/14 07:02:00;;;;;;;16.83;8.33;;;4.90;97.30;;;;;;5034003;28;20025;-93
2021/03/14 07:04:43;;;;;;;16.47;7.47;;;5.00;97.40;;;;;;5033770;28;20034;-94
2021/03/14 07:07:20;;;;;;;14.73;7.53;;;5.00;97.30;;;;;;5021493;28;20037;-94
2021/03/14 07:09:53;;;;;;;17.73;8.50;;;5.00;97.30;;;;;;5039577;28;20112;-94
2021/03/14 07:12:24;;;;;;;17.70;8.47;;;5.10;97.40;;;;;;5023121;28;20048;-95
2021/03/14 07:14:50;;;;;;;14.17;7.57;;;5.10;97.30;;;;;;5022655;28;20025;-95
2021/03/14 07:17:31;;;;;;;14.17;7.60;;;5.10;97.30;;;;;;5021489;28;20072;-95
2021/03/14 07:20:03;;;;;;;21.90;7.90;;;5.10;97.30;;;;;;5008283;28;20037;-95
2021/03/14 07:22:29;;;;;;;16.03;8.20;;;5.10;97.30;;;;;;5022349;28;20028;-94
2021/03/14 07:24:54;;;;;;;19.50;9.03;;;5.20;97.40;;;;;;5024909;28;20026;-94
2021/03/14 07:27:23;;;;;;;15.73;8.60;;;5.20;97.30;;;;;;5007329;28;20041;-95
2021/03/14 07:29:50;;;;;;;21.03;9.03;;;5.20;97.30;;;;;;5024900;28;20022;-94
2021/03/14 07:32:17;;;;;;;16.60;8.73;;;5.20;97.40;;;;;;5025679;28;20033;-95
2021/03/14 07:34:43;;;;;;;16.43;9.13;;;5.30;97.30;;;;;;5021981;28;20116;-93
2021/03/14 07:37:09;;;;;;;17.30;9.37;;;5.30;97.30;;;;;;5021072;28;20022;-94
2021/03/14 07:39:34;;;;;;;19.03;10.20;;;5.40;97.30;;;;;;5004599;28;20036;-93
2021/03/14 07:42:03;;;;;;;23.73;10.57;;;5.40;97.30;;;;;;5020754;28;20542;-95
2021/03/14 07:44:29;;;;;;;24.50;11.13;;;5.40;97.30;;;;;;5020930;28;20094;-94
2021/03/14 07:46:56;;;;;;;20.33;10.73;;;5.40;97.30;;;;;;5021227;28;20073;-94
2021/03/14 07:49:26;;;;;;;22.17;11.83;;;5.50;97.30;;;;;;5021226;28;20021;-95
2021/03/14 07:52:06;;;;;;;23.47;11.27;;;5.50;97.40;;;;;;5021760;28;20021;-94
2021/03/14 07:54:46;;;;;;;30.30;12.57;;;5.50;97.40;;;;;;5021852;28;20088;-94
2021/03/14 07:57:17;;;;;;;22.63;10.97;;;5.70;97.50;;;;;;5034052;28;20041;-92
2021/03/14 07:59:42;;;;;;;19.13;11.00;;;5.80;97.60;;;;;;5017431;28;20117;-94
2021/03/14 08:02:17;;;;;;;25.30;11.63;;;5.80;97.60;;;;;;5006333;28;20045;-94
2021/03/14 08:04:47;;;;;;;28.40;12.97;;;5.80;97.70;;;;;;5021445;28;20029;-94
2021/03/14 08:07:14;;;;;;;26.53;13.00;;;5.90;97.70;;;;;;5021973;28;20033;-90
2021/03/14 08:09:45;;;;;;;26.07;12.83;;;6.00;97.70;;;;;;5021711;28;20080;-95
2021/03/14 08:12:26;;;;;;;32.23;12.17;;;6.10;97.70;;;;;;5020207;28;20036;-92
2021/03/14 08:14:56;;;;;;;22.80;12.07;;;6.10;97.70;;;;;;5019895;28;20021;-93
2021/03/14 08:17:24;;;;;;;29.93;12.20;;;6.20;97.70;;;;;;5036934;28;20053;-93
2021/03/14 08:19:53;;;;;;;28.87;11.40;;;6.20;97.70;;;;;;5019888;28;20052;-93
2021/03/14 08:22:37;;;;;;;26.97;13.07;;;6.20;97.70;;;;;;5019551;28;20101;-93
2021/03/14 08:25:24;;;;;;;26.20;11.32;;;6.20;97.70;;;;;;5020666;28;20033;-93
2021/03/14 08:27:59;;;;;;;25.43;11.33;;;6.40;97.70;;;;;;5037600;28;20034;-95
2021/03/14 08:30:31;;;;;;;21.27;10.83;;;6.40;97.60;;;;;;5021041;28;20032;-94
2021/03/14 08:33:26;;;;;;;25.87;12.13;;;6.40;97.60;;;;;;5020688;28;20060;-91
2021/03/14 08:36:04;;;;;;;24.57;11.77;;;6.50;97.70;;;;;;5021184;28;20033;-94
2021/03/14 08:38:31;;;;;;;24.03;11.13;;;6.50;97.60;;;;;;5020295;28;20029;-92
2021/03/14 08:41:18;;;;;;;21.40;10.27;;;6.60;97.60;;;;;;5037384;28;20065;-89
2021/03/14 08:43:46;;;;;;;24.43;12.10;;;6.70;97.60;;;;;;5020003;28;20120;-92
2021/03/14 08:46:12;;;;;;;21.33;10.87;;;6.90;97.70;;;;;;5018981;28;20548;-91
2021/03/14 08:48:38;;;;;;;21.80;9.50;;;6.90;97.60;;;;;;5002175;28;20034;-90
2021/03/14 08:51:09;;;;;;;22.47;8.93;;;7.00;97.50;;;;;;5020172;28;20512;-92
2021/03/14 08:53:36;;;;;;;17.00;8.93;;;7.10;97.40;;;;;;5037567;28;20029;-93
2021/03/14 08:56:04;;;;;;;18.43;7.50;;;7.10;97.50;;;;;;5030467;28;20045;-95
2021/03/14 08:58:30;;;;;;;22.63;8.10;;;7.20;97.30;;;;;;5038984;28;20021;-90
2021/03/14 09:01:07;;;;;;;20.13;8.57;;;7.30;97.20;;;;;;5039597;28;20024;-93
2021/03/14 09:03:45;;;;;;;17.50;7.70;;;7.30;97.10;;;;;;5039016;28;20029;-94
2021/03/14 09:06:23;;;;;;;18.47;7.73;;;7.30;96.80;;;;;;5039628;28;20044;-95
2021/03/14 09:09:07;;;;;;;18.10;7.97;;;7.40;96.70;;;;;;5038898;28;20025;-92
2021/03/14 09:11:50;;;;;;;18.80;7.70;;;7.40;96.60;;;;;;5022983;28;20021;-94
2021/03/14 09:14:29;;;;;;;15.37;6.30;;;7.40;96.30;;;;;;5039176;28;20048;-95
2021/03/14 09:16:59;;;;;;;20.77;7.03;;;7.40;96.30;;;;;;5040704;28;20063;-95
2021/03/14 09:19:44;;;;;;;18.77;6.93;;;7.40;96.00;;;;;;5054359;28;20029;-93
2021/03/14 09:22:27;;;;;;;22.20;6.70;;;7.40;95.90;;;;;;5057673;28;20118;-93
2021/03/14 09:25:01;;;;;;;22.77;7.13;;;7.50;96.10;;;;;;5060428;28;20025;-93
2021/03/14 09:27:31;;;;;;;17.40;7.60;;;7.60;95.90;;;;;;5059709;28;20478;-92
2021/03/14 09:30:10;;;;;;;24.03;6.73;;;7.70;95.90;;;;;;5041203;28;20029;-96
2021/03/14 09:32:51;;;;;;;15.07;6.70;;;7.70;95.80;;;;;;5055954;28;20032;-93
2021/03/14 09:35:25;;;;;;;13.60;6.20;;;7.80;95.80;;;;;;5038893;28;20371;-94
2021/03/14 09:38:14;;;;;;;15.93;6.55;;;7.80;95.60;;;;;;5037763;28;20081;-93
2021/03/14 09:40:45;;;;;;;18.83;5.87;;;8.00;95.70;;;;;;5038790;28;20036;-95
2021/03/14 09:43:18;;;;;;;15.73;5.73;;;8.10;95.80;;;;;;5038158;28;20027;-95
2021/03/14 09:45:50;;;;;;;14.23;6.63;;;8.10;95.40;;;;;;5037887;28;20029;-90
2021/03/14 09:48:17;;;;;;;15.47;5.80;;;8.30;95.20;;;;;;5055842;28;20035;-94
2021/03/14 09:50:50;;;;;;;18.83;6.50;;;8.30;94.60;;;;;;5058553;28;20104;-93
2021/03/14 09:53:17;;;;;;;16.70;5.67;;;8.30;94.10;;;;;;5037704;28;20052;-93
2021/03/14 09:55:49;;;;;;;14.73;6.27;;;8.30;94.30;;;;;;5057138;28;20071;-90
2021/03/14 09:58:17;;;;;;;12.73;5.27;;;8.30;93.80;;;;;;5058018;28;20041;-93
2021/03/14 10:00:45;;;;;;;14.33;5.93;;;8.30;93.30;;;;;;5031707;28;20060;-94
2021/03/14 10:03:13;;;;;;;15.00;5.53;;;8.30;93.40;;;;;;5021628;28;20527;-91
2021/03/14 10:05:48;;;;;;;19.47;4.90;;;8.40;93.40;;;;;;5057808;28;20092;-93
2021/03/14 10:08:27;;;;;;;13.30;4.10;;;8.50;93.20;;;;;;5043499;28;20028;-91
2021/03/14 10:11:05;;;;;;;12.80;4.23;;;8.50;92.70;;;;;;5073863;28;20040;-95
2021/03/14 10:13:33;;;;;;;12.43;4.27;;;8.60;92.20;;;;;;5055124;28;20021;-92
2021/03/14 10:16:05;;;;;;;11.43;3.60;;;8.60;92.30;;;;;;5033719;28;20101;-91
2021/03/14 10:18:32;;;;;;;13.37;3.63;;;8.70;92.40;;;;;;5053124;28;20032;-92
2021/03/14 10:21:15;;;;;;;8.63;3.73;;;8.70;91.90;;;;;;5067230;28;20036;-92
2021/03/14 10:23:41;;;;;;;16.70;5.03;;;8.80;92.10;;;;;;5050064;28;20100;-92
2021/03/14 10:26:12;;;;;;;15.00;4.27;;;8.90;92.20;;;;;;5044024;28;20060;-93
2021/03/14 10:28:39;;;;;;;13.87;3.53;;;9.00;92.30;;;;;;5070176;28;20100;-93
2021/03/14 10:31:08;;;;;;;13.67;4.20;;;9.10;92.10;;;;;;5064822;28;20044;-93
2021/03/14 10:33:35;;;;;;;14.07;3.27;;;9.20;91.50;;;;;;5042991;28;20040;-95
2021/03/14 10:36:09;;;;;;;10.53;2.77;;;9.30;91.20;;;;;;5073333;28;20012;-89
2021/03/14 10:38:55;;;;;;;7.97;2.15;;;9.50;91.30;;;;;;5047239;28;20022;-95
2021/03/14 10:41:22;;;;;;;9.73;2.57;;;9.60;89.90;;;;;;5040255;28;20040;-95
2021/03/14 10:43:49;;;;;;;7.17;1.37;;;9.70;89.70;;;;;;5055276;28;20021;-93
2021/03/14 10:46:31;;;;;;;5.70;1.20;;;10.10;90.80;;;;;;5058748;28;20049;-90
2021/03/14 10:49:14;;;;;;;6.07;1.27;;;10.60;90.40;;;;;;5041258;28;20033;-93
2021/03/14 10:51:52;;;;;;;5.00;1.00;;;11.10;87.00;;;;;;5042806;28;20032;-96
2021/03/14 10:54:18;;;;;;;4.90;1.05;;;11.50;84.10;;;;;;5042155;28;20028;-88
2021/03/14 10:56:49;;;;;;;3.65;0.90;;;12.10;83.60;;;;;;5059106;28;20077;-93
2021/03/14 10:59:32;;;;;;;6.15;1.00;;;12.80;82.80;;;;;;5042080;28;20032;-94
2021/03/14 11:02:21;;;;;;;5.55;0.80;;;13.30;77.50;;;;;;5042291;28;20048;-89
2021/03/14 11:04:55;;;;;;;7.90;0.90;;;13.10;72.30;;;;;;5042447;28;20024;-86
2021/03/14 11:07:34;;;;;;;4.78;0.70;;;12.60;70.80;;;;;;5046211;28;20048;-94
2021/03/14 11:10:17;;;;;;;3.60;1.15;;;12.00;72.00;;;;;;5048389;28;20083;-92
2021/03/14 11:12:45;;;;;;;1.70;0.40;;;11.90;72.70;;;;;;5024162;28;20032;-92
2021/03/14 11:15:27;;;;;;;2.47;0.40;;;11.90;72.80;;;;;;5063931;28;20043;-87
2021/03/14 11:17:53;;;;;;;3.63;0.55;;;12.20;72.60;;;;;;5054294;28;20119;-92
2021/03/14 11:20:20;;;;;;;5.30;0.82;;;12.70;70.10;;;;;;5068732;28;20090;-91
2021/03/14 11:22:51;;;;;;;4.57;0.50;;;13.00;69.30;;;;;;5059815;28;20025;-94
2021/03/14 11:25:17;;;;;;;2.88;0.50;;;13.20;67.30;;;;;;5040412;28;20223;-93
2021/03/14 11:27:43;;;;;;;7.07;0.70;;;13.10;67.30;;;;;;5032342;28;20040;-92
2021/03/14 11:30:10;;;;;;;6.03;0.75;;;12.80;66.60;;;;;;5058656;28;20025;-87
2021/03/14 11:32:35;;;;;;;4.88;0.90;;;12.60;67.60;;;;;;5039966;28;20021;-92
2021/03/14 11:35:02;;;;;;;6.90;0.93;;;12.50;68.50;;;;;;5061723;28;20021;-88
2021/03/14 11:37:29;;;;;;;3.53;0.93;;;12.30;68.60;;;;;;5046705;28;20048;-93
2021/03/14 11:39:55;;;;;;;6.72;0.90;;;12.20;69.60;;;;;;5057097;28;20028;-89
2021/03/14 11:42:21;;;;;;;8.70;1.10;;;12.00;69.80;;;;;;5039344;28;20025;-90
2021/03/14 11:44:46;;;;;;;5.70;1.05;;;11.90;70.30;;;;;;5039512;28;20040;-88
2021/03/14 11:47:12;;;;;;;6.00;0.80;;;11.80;70.80;;;;;;5055198;28;20037;-91
2021/03/14 11:49:38;;;;;;;7.00;1.17;;;11.70;71.20;;;;;;5039630;28;20090;-86
2021/03/14 11:52:04;;;;;;;8.82;1.17;;;11.60;71.80;;;;;;5040600;28;20060;-91
2021/03/14 11:54:30;;;;;;;6.38;0.93;;;11.50;70.30;;;;;;5057905;28;20017;-92
2021/03/14 11:56:56;;;;;;;5.20;0.80;;;11.50;70.20;;;;;;5039437;28;20105;-90
2021/03/14 11:59:21;;;;;;;4.63;0.98;;;11.50;70.20;;;;;;5057184;28;20025;-92
2021/03/14 12:01:49;;;;;;;9.52;0.95;;;11.50;70.50;;;;;;5039580;28;20544;-91
2021/03/14 12:04:16;;;;;;;11.03;0.93;;;11.50;69.90;;;;;;5040044;28;20032;-87
2021/03/14 12:06:42;;;;;;;8.82;1.30;;;11.40;69.50;;;;;;5039364;28;20063;-90
2021/03/14 12:09:08;;;;;;;8.43;1.40;;;11.30;68.80;;;;;;5039456;28;20478;-91
2021/03/14 12:11:34;;;;;;;5.68;1.08;;;11.40;68.90;;;;;;5039269;28;20561;-92
2021/03/14 12:14:00;;;;;;;8.10;0.88;;;11.50;69.20;;;;;;5057380;28;20021;-92
2021/03/14 12:16:33;;;;;;;8.52;1.00;;;11.60;69.60;;;;;;5040609;28;20042;-91
2021/03/14 12:18:59;;;;;;;9.18;1.00;;;11.50;69.70;;;;;;5041483;28;20032;-86
2021/03/14 12:21:25;;;;;;;7.43;1.08;;;11.40;68.40;;;;;;5057786;28;20021;-91
2021/03/14 12:23:51;;;;;;;7.30;0.83;;;11.20;69.30;;;;;;5056175;28;20112;-90
2021/03/14 12:26:17;;;;;;;8.67;1.27;;;11.10;70.30;;;;;;5056913;28;20033;-90
2021/03/14 12:28:42;;;;;;;9.67;1.23;;;11.10;70.70;;;;;;5038548;28;20017;-88
2021/03/14 12:31:08;;;;;;;10.68;1.08;;;11.10;71.20;;;;;;5056979;28;20422;-92
2021/03/14 12:33:34;;;;;;;5.55;0.75;;;11.50;71.40;;;;;;5056817;28;20471;-92
2021/03/14 12:35:59;;;;;;;8.38;0.88;;;11.90;70.10;;;;;;5057440;28;20052;-91
2021/03/14 12:38:26;;;;;;;6.78;1.00;;;11.90;68.70;;;;;;5038786;28;20060;-89
2021/03/14 12:40:53;;;;;;;6.70;1.13;;;11.80;68.60;;;;;;5039155;28;20110;-92
2021/03/14 12:43:22;;;;;;;5.78;1.20;;;11.70;65.60;;;;;;5040011;28;20029;-93
2021/03/14 12:45:49;;;;;;;5.15;1.00;;;11.50;65.40;;;;;;5025137;28;20485;-91
2021/03/14 12:48:19;;;;;;;8.77;0.77;;;11.70;67.10;;;;;;5050385;28;20025;-86
2021/03/14 12:50:50;;;;;;;9.43;1.60;;;11.70;66.10;;;;;;5056298;28;20039;-90
2021/03/14 12:53:15;;;;;;;7.13;1.20;;;11.50;65.20;;;;;;5060599;28;20052;-87
2021/03/14 12:55:44;;;;;;;9.20;1.30;;;11.40;66.50;;;;;;5058563;28;20037;-89
2021/03/14 12:58:10;;;;;;;6.13;0.80;;;11.40;68.20;;;;;;5037497;28;20032;-88